Time;durP1;ratioP1;P1;durP2;ratioP2;P2;SDS_P1;SDS_P2;PMS_P1;PMS_P2;Temp;Humidity;BMP_temperature;BMP_pressure;BME280_temperature;BME280_humidity;BME280_pressure;Samples;Min_cycle;Max_cycle;Signal;HPM_P1;HPM_P2
2022/05/06 00:01:31;;;;;;;3.80;2.92;;;;;;;9.28;100.00;99460.47;5132487;28;20051;-49
2022/05/06 00:03:58;;;;;;;6.25;2.88;;;;;;;9.66;100.00;99478.28;5132678;28;20092;-46
2022/05/06 00:06:24;;;;;;;6.05;3.05;;;;;;;9.87;100.00;99492.53;5132215;28;20098;-48
2022/05/06 00:08:50;;;;;;;7.05;2.58;;;;;;;9.94;100.00;99491.94;5132252;28;20043;-47
2022/05/06 00:11:17;;;;;;;4.93;2.50;;;;;;;9.95;100.00;99500.94;5132185;28;20051;-46
2022/05/06 00:13:43;;;;;;;8.15;3.17;;;;;;;9.69;100.00;99482.25;5131998;28;20413;-48
2022/05/06 00:16:10;;;;;;;14.77;3.70;;;;;;;9.59;100.00;99480.84;5132184;28;20043;-49
2022/05/06 00:18:37;;;;;;;7.22;3.83;;;;;;;9.61;100.00;99478.56;5132036;28;20509;-46
2022/05/06 00:21:03;;;;;;;4.57;3.30;;;;;;;9.49;100.00;99478.59;5132215;28;20050;-46
2022/05/06 00:23:29;;;;;;;7.80;2.53;;;;;;;9.68;100.00;99483.41;5131933;28;20058;-46
2022/05/06 00:25:56;;;;;;;5.97;2.85;;;;;;;9.80;100.00;99492.38;5132085;28;20051;-45
2022/05/06 00:28:23;;;;;;;9.15;3.33;;;;;;;9.82;100.00;99484.56;5131631;27;20051;-46
2022/05/06 00:30:49;;;;;;;6.70;3.35;;;;;;;9.87;100.00;99481.59;5132062;28;20054;-46
2022/05/06 00:33:15;;;;;;;6.40;3.40;;;;;;;9.83;100.00;99486.19;5131685;28;20124;-45
2022/05/06 00:35:42;;;;;;;6.82;3.38;;;;;;;9.67;100.00;99477.16;5131844;28;20062;-47
2022/05/06 00:38:08;;;;;;;10.35;3.67;;;;;;;9.73;100.00;99483.16;5131561;28;20047;-47
2022/05/06 00:40:34;;;;;;;7.47;3.30;;;;;;;9.71;100.00;99477.25;5131560;28;20047;-46
2022/05/06 00:43:00;;;;;;;5.65;3.15;;;;;;;9.65;100.00;99463.81;5131519;28;20099;-46
2022/05/06 00:45:37;;;;;;;9.52;2.75;;;;;;;9.63;100.00;99457.91;5131413;28;20471;-48
2022/05/06 00:48:04;;;;;;;7.53;2.90;;;;;;;10.00;100.00;99468.63;5131933;28;20043;-46
2022/05/06 00:50:30;;;;;;;6.43;3.47;;;;;;;10.19;100.00;99480.78;5131713;28;20051;-47
2022/05/06 00:52:57;;;;;;;4.60;3.20;;;;;;;10.22;100.00;99472.66;5131879;28;20100;-46
2022/05/06 00:55:24;;;;;;;7.53;3.13;;;;;;;10.45;100.00;99483.81;5131464;28;20368;-49
2022/05/06 00:57:50;;;;;;;7.45;3.53;;;;;;;10.58;100.00;99490.75;5131912;28;20043;-46
2022/05/06 01:00:21;;;;;;;8.82;3.13;;;;;;;10.32;100.00;99480.38;5131454;28;20081;-48
2022/05/06 01:02:47;;;;;;;14.40;3.40;;;;;;;10.04;100.00;99476.91;5131517;28;20054;-46
2022/05/06 01:05:14;;;;;;;7.40;3.78;;;;;;;9.62;100.00;99466.44;5131026;28;20059;-46
2022/05/06 01:07:43;;;;;;;5.20;2.78;;;;;;;9.47;100.00;99461.75;5131228;28;20047;-47
2022/05/06 01:10:10;;;;;;;5.28;2.85;;;;;;;9.46;100.00;99450.00;5131143;28;20047;-46
2022/05/06 01:12:37;;;;;;;10.32;3.13;;;;;;;9.43;100.00;99442.50;5131099;28;20043;-49
2022/05/06 01:15:17;;;;;;;6.63;3.00;;;;;;;9.24;100.00;99442.38;5130957;28;20051;-46
2022/05/06 01:17:43;;;;;;;5.63;2.83;;;;;;;9.04;100.00;99433.22;5131007;28;20498;-45
2022/05/06 01:20:11;;;;;;;7.28;3.08;;;;;;;8.91;100.00;99414.13;5131302;28;20058;-48
2022/05/06 01:22:38;;;;;;;6.75;3.00;;;;;;;9.07;100.00;99427.06;5130896;28;20062;-46
2022/05/06 01:25:05;;;;;;;5.97;2.95;;;;;;;9.05;100.00;99415.66;5131273;28;20071;-48
2022/05/06 01:27:37;;;;;;;7.47;2.88;;;;;;;8.94;100.00;99418.09;5130782;28;20055;-49
2022/05/06 01:30:04;;;;;;;7.15;3.38;;;;;;;8.86;100.00;99410.81;5131048;28;20058;-46
2022/05/06 01:32:33;;;;;;;6.47;3.35;;;;;;;8.72;100.00;99411.22;5131114;28;20050;-48
2022/05/06 01:35:00;;;;;;;5.47;2.83;;;;;;;8.66;100.00;99394.28;5130717;28;20104;-46
2022/05/06 01:37:29;;;;;;;12.45;3.58;;;;;;;8.53;100.00;99398.19;5130791;28;20452;-46
2022/05/06 01:39:59;;;;;;;8.98;2.65;;;;;;;8.33;100.00;99388.97;5129889;27;20054;-46
2022/05/06 01:42:28;;;;;;;7.28;2.70;;;;;;;8.28;100.00;99377.47;5131064;28;20043;-45
2022/05/06 01:44:55;;;;;;;7.80;2.63;;;;;;;8.13;100.00;99371.59;5130641;28;20055;-46
2022/05/06 01:47:26;;;;;;;5.03;2.85;;;;;;;8.36;100.00;99358.22;5131063;28;20047;-46
2022/05/06 01:49:54;;;;;;;5.70;2.97;;;;;;;8.51;100.00;99364.94;5130482;28;20047;-46
2022/05/06 01:52:21;;;;;;;5.32;2.88;;;;;;;8.43;100.00;99368.59;5130730;28;20138;-45
2022/05/06 01:54:48;;;;;;;8.40;3.40;;;;;;;8.28;100.00;99381.00;5130501;28;20051;-47
2022/05/06 01:57:15;;;;;;;10.20;3.35;;;;;;;8.14;100.00;99356.78;5130459;28;20047;-47
2022/05/06 01:59:41;;;;;;;5.70;2.50;;;;;;;8.14;100.00;99359.53;5130521;28;20134;-47
2022/05/06 02:02:07;;;;;;;9.82;2.67;;;;;;;8.48;100.00;99358.22;5130429;28;20506;-46
2022/05/06 02:07:18;;;;;;;4.68;2.72;;;;;;;8.90;100.00;99389.88;5130537;28;20124;-46
2022/05/06 02:09:44;;;;;;;5.35;3.17;;;;;;;8.11;100.00;99359.41;5130334;28;20047;-49
2022/05/06 02:12:11;;;;;;;6.35;2.97;;;;;;;7.64;100.00;99322.47;5130216;28;20043;-46
2022/05/06 02:14:38;;;;;;;4.28;2.63;;;;;;;7.28;100.00;99274.16;5130596;28;20054;-46
2022/05/06 02:17:04;;;;;;;6.32;2.88;;;;;;;7.12;100.00;99244.03;5130120;28;20047;-46
2022/05/06 02:19:31;;;;;;;7.45;2.70;;;;;;;7.04;100.00;99225.88;5128447;28;20051;-45
2022/05/06 02:21:57;;;;;;;4.53;2.97;;;;;;;7.32;100.00;99231.44;5130091;28;20558;-46
2022/05/06 02:24:23;;;;;;;5.63;2.95;;;;;;;7.57;100.00;99245.88;5130275;28;20057;-47
2022/05/06 02:26:50;;;;;;;8.10;2.17;;;;;;;7.92;100.00;99264.44;5130336;28;20484;-46
2022/05/06 02:29:16;;;;;;;3.70;2.85;;;;;;;8.06;100.00;99303.09;5129965;28;20582;-46
2022/05/06 02:34:27;;;;;;;8.02;2.72;;;;;;;7.92;100.00;99299.94;5130154;28;20050;-46
2022/05/06 02:36:53;;;;;;;5.13;2.67;;;;;;;7.71;100.00;99298.16;5130409;28;20086;-46
2022/05/06 02:39:20;;;;;;;11.20;2.65;;;;;;;7.87;100.00;99298.25;5129959;28;20073;-46
2022/05/06 02:41:46;;;;;;;5.80;2.60;;;;;;;8.21;100.00;99307.84;5130359;28;20150;-46
2022/05/06 02:44:13;;;;;;;8.77;3.10;;;;;;;8.44;100.00;99334.69;5129776;28;20051;-45
2022/05/06 02:46:39;;;;;;;6.65;2.75;;;;;;;8.26;100.00;99334.09;5129856;28;20184;-47
2022/05/06 02:49:06;;;;;;;7.55;2.92;;;;;;;8.00;100.00;99313.47;5130208;28;20104;-46
2022/05/06 02:51:32;;;;;;;8.57;3.33;;;;;;;7.77;100.00;99287.81;5131516;27;20069;-45
2022/05/06 02:53:58;;;;;;;7.75;3.00;;;;;;;7.85;100.00;99278.69;5133648;28;20050;-46
2022/05/06 02:56:25;;;;;;;9.20;3.22;;;;;;;8.33;100.00;99276.97;5133063;28;20055;-45
2022/05/06 02:58:51;;;;;;;5.60;2.85;;;;;;;9.01;100.00;99314.38;5133391;28;20500;-46
2022/05/06 03:01:17;;;;;;;4.85;3.13;;;;;;;10.20;100.00;99383.78;5133166;28;20050;-45
2022/05/06 03:03:43;;;;;;;9.98;3.85;;;;;;;10.84;100.00;99440.81;5133331;28;20156;-46
2022/05/06 03:06:10;;;;;;;10.10;4.30;;;;;;;11.63;100.00;99472.56;5133200;28;20047;-47
2022/05/06 03:08:37;;;;;;;8.07;4.43;;;;;;;12.37;100.00;99508.00;5132989;28;20047;-45
2022/05/06 03:11:03;;;;;;;9.18;4.80;;;;;;;12.65;100.00;99524.13;5132921;28;20054;-47
2022/05/06 03:13:29;;;;;;;7.80;4.55;;;;;;;12.94;100.00;99541.06;5132998;28;20051;-48
2022/05/06 03:15:55;;;;;;;11.70;4.95;;;;;;;13.33;100.00;99554.63;5133053;28;20051;-47
2022/05/06 03:18:21;;;;;;;6.32;4.35;;;;;;;13.90;100.00;99569.06;5133037;28;20058;-47
2022/05/06 03:20:47;;;;;;;9.10;5.05;;;;;;;13.34;100.00;99578.22;5133036;28;20051;-46
2022/05/06 03:23:15;;;;;;;9.45;4.70;;;;;;;12.95;100.00;99570.19;5132775;28;20058;-48
2022/05/06 03:25:42;;;;;;;8.85;5.30;;;;;;;13.16;100.00;99569.69;5132927;28;20047;-51
2022/05/06 03:28:08;;;;;;;6.43;4.72;;;;;;;13.21;100.00;99574.88;5132875;28;20058;-50
2022/05/06 03:30:39;;;;;;;7.07;4.00;;;;;;;13.69;100.00;99574.31;5132882;28;20096;-50
2022/05/06 03:33:08;;;;;;;7.05;4.68;;;;;;;14.05;100.00;99572.75;5132638;28;20593;-45
2022/05/06 03:35:34;;;;;;;8.63;4.60;;;;;;;14.50;100.00;99579.91;5133056;28;20062;-45
2022/05/06 03:38:01;;;;;;;10.63;5.53;;;;;;;15.11;98.27;99579.56;5132513;28;20054;-46
2022/05/06 03:40:28;;;;;;;8.13;5.80;;;;;;;15.51;94.93;99590.44;5132934;28;20054;-46
2022/05/06 03:42:54;;;;;;;6.28;3.83;;;;;;;15.50;93.63;99601.91;5132683;28;20062;-46
2022/05/06 03:45:20;;;;;;;7.05;4.53;;;;;;;15.72;93.49;99602.78;5132505;28;20047;-48
2022/05/06 03:47:46;;;;;;;9.50;4.93;;;;;;;15.82;93.82;99598.50;5132602;28;20058;-46
2022/05/06 03:52:58;;;;;;;6.63;5.43;;;;;;;16.57;89.35;99613.28;5132609;28;20426;-45
2022/05/06 03:55:25;;;;;;;8.27;5.00;;;;;;;16.74;89.59;99611.69;5132297;28;20071;-48
2022/05/06 03:57:52;;;;;;;7.55;4.05;;;;;;;17.35;86.92;99617.97;5132458;28;20054;-48
2022/05/06 04:00:19;;;;;;;9.75;4.68;;;;;;;17.46;87.63;99622.69;5132259;28;20055;-47
2022/05/06 04:02:46;;;;;;;8.48;4.45;;;;;;;17.24;90.88;99617.22;5131865;27;20207;-48
2022/05/06 04:05:12;;;;;;;12.73;5.00;;;;;;;17.16;92.77;99608.16;5132120;28;20059;-47
2022/05/06 04:07:38;;;;;;;8.80;4.82;;;;;;;17.26;89.74;99614.84;5132308;28;20047;-47
2022/05/06 04:10:05;;;;;;;8.35;4.22;;;;;;;17.30;91.03;99612.84;5132179;28;20047;-46
2022/05/06 04:12:31;;;;;;;7.57;4.45;;;;;;;16.85;86.36;99612.50;5132017;28;20047;-47
2022/05/06 04:14:59;;;;;;;9.48;4.15;;;;;;;16.05;90.58;99607.25;5132084;28;20051;-46
2022/05/06 04:17:25;;;;;;;6.47;3.65;;;;;;;15.41;96.12;99593.94;5132071;28;20058;-48
2022/05/06 04:25:20;;;;;;;11.13;4.07;;;;;;;16.16;92.10;99601.75;5132011;28;20054;-49
2022/05/06 04:27:47;;;;;;;8.95;3.22;;;;;;;15.67;96.03;99584.63;5131620;28;20047;-46
2022/05/06 04:30:14;;;;;;;6.75;3.70;;;;;;;15.16;97.02;99593.81;5131661;28;20047;-48
2022/05/06 04:32:40;;;;;;;11.48;5.35;;;;;;;14.78;100.00;99571.06;5131861;28;20108;-50
2022/05/06 04:35:08;;;;;;;10.32;4.38;;;;;;;14.90;100.00;99572.75;5131580;28;20834;-48
2022/05/06 04:37:35;;;;;;;7.57;4.40;;;;;;;14.87;100.00;99573.50;5131587;28;20145;-47
2022/05/06 04:40:01;;;;;;;8.35;2.70;;;;;;;14.99;100.00;99558.56;5131322;28;20092;-50
2022/05/06 04:42:28;;;;;;;11.20;4.93;;;;;;;15.21;100.00;99560.28;5131686;28;20054;-47
2022/05/06 04:44:54;;;;;;;5.40;2.78;;;;;;;15.33;100.00;99564.72;5131492;28;20593;-46
2022/05/06 04:47:21;;;;;;;7.10;3.50;;;;;;;15.61;100.00;99563.25;5131719;28;20073;-47
2022/05/06 04:49:47;;;;;;;25.25;5.30;;;;;;;15.94;100.00;99565.75;5131100;28;20059;-47
2022/05/06 04:52:13;;;;;;;12.43;3.67;;;;;;;16.85;95.35;99581.25;5131383;28;20055;-48
2022/05/06 04:54:40;;;;;;;9.48;4.93;;;;;;;17.06;92.23;99597.06;5130927;28;20047;-46
2022/05/06 04:57:07;;;;;;;10.55;4.45;;;;;;;17.11;91.23;99591.13;5131213;28;20054;-48
2022/05/06 04:59:33;;;;;;;6.80;4.25;;;;;;;17.51;89.00;99603.69;5131390;28;20107;-49
2022/05/06 05:01:59;;;;;;;11.88;4.55;;;;;;;17.57;87.78;99615.16;5131197;28;20119;-46
2022/05/06 05:04:28;;;;;;;11.75;5.53;;;;;;;17.85;86.81;99617.06;5131251;28;20047;-47
2022/05/06 05:06:55;;;;;;;10.57;4.90;;;;;;;18.30;85.13;99625.56;5130875;28;20517;-47
2022/05/06 05:09:21;;;;;;;27.42;4.65;;;;;;;19.04;83.92;99621.44;5131173;28;20047;-46
2022/05/06 05:11:47;;;;;;;8.55;4.55;;;;;;;19.48;82.23;99619.00;5130509;28;20066;-46
2022/05/06 05:14:14;;;;;;;9.43;5.15;;;;;;;19.86;80.68;99627.31;5130231;27;20050;-50
2022/05/06 05:16:40;;;;;;;11.85;4.13;;;;;;;20.52;79.17;99624.03;5130838;28;20047;-48
2022/05/06 05:19:06;;;;;;;8.88;4.95;;;;;;;20.72;78.18;99629.72;5130907;28;20054;-48
2022/05/06 05:21:33;;;;;;;14.77;5.28;;;;;;;20.72;78.04;99624.13;5130885;28;20054;-50
2022/05/06 05:23:59;;;;;;;10.40;5.68;;;;;;;21.08;77.79;99629.91;5130849;28;20075;-48
2022/05/06 05:26:25;;;;;;;9.95;5.60;;;;;;;21.17;76.57;99631.38;5130696;28;20051;-49
2022/05/06 05:28:52;;;;;;;14.07;5.82;;;;;;;21.17;75.92;99626.56;5130851;28;20108;-50
2022/05/06 05:31:18;;;;;;;19.65;5.85;;;;;;;21.07;75.90;99633.13;5130830;28;20058;-66
2022/05/06 05:33:45;;;;;;;7.05;5.38;;;;;;;21.01;75.96;99635.59;5130770;28;20048;-66
2022/05/06 05:36:11;;;;;;;12.50;7.78;;;;;;;20.82;78.43;99634.31;5130737;28;20100;-64
2022/05/06 05:38:38;;;;;;;32.75;7.82;;;;;;;20.73;77.19;99636.09;5130491;28;20051;-65
2022/05/06 05:41:05;;;;;;;28.33;6.72;;;;;;;20.43;77.29;99632.13;5130603;28;20494;-65
2022/05/06 05:49:00;;;;;;;320.52;239.35;;;;;;;20.45;78.15;99638.06;5130611;28;20096;-66
2022/05/06 05:51:26;;;;;;;79.32;17.65;;;;;;;20.81;82.51;99631.97;5130289;28;20051;-72
2022/05/06 05:53:53;;;;;;;46.85;10.05;;;;;;;21.67;80.07;99622.09;5130648;28;20047;-71
2022/05/06 05:56:19;;;;;;;55.88;15.45;;;;;;;22.41;78.25;99635.69;5130449;28;20051;-78
2022/05/06 05:58:45;;;;;;;54.00;11.95;;;;;;;22.76;84.07;99618.06;5130368;28;20051;-74
2022/05/06 06:01:11;;;;;;;21.50;8.63;;;;;;;23.02;78.14;99621.84;5130130;28;20051;-75
2022/05/06 06:03:38;;;;;;;23.98;9.93;;;;;;;23.32;79.37;99625.44;5130740;28;20464;-80
2022/05/06 06:06:04;;;;;;;20.38;9.18;;;;;;;23.73;75.62;99626.75;5130367;28;20101;-79
2022/05/06 06:08:31;;;;;;;19.42;9.85;;;;;;;24.15;74.25;99635.13;5130436;28;20051;-71
2022/05/06 06:11:01;;;;;;;17.20;9.43;;;;;;;23.84;74.85;99632.06;5130156;28;20047;-74
2022/05/06 06:13:28;;;;;;;30.30;17.60;;;;;;;23.64;74.13;99632.19;5130167;28;20050;-72
2022/05/06 06:15:54;;;;;;;21.85;10.65;;;;;;;23.52;73.35;99644.09;5130274;28;20055;-70
2022/05/06 06:18:24;;;;;;;25.85;11.43;;;;;;;23.90;73.75;99636.66;5129925;28;20061;-72
2022/05/06 06:20:50;;;;;;;13.35;9.63;;;;;;;23.91;71.71;99645.84;5130335;28;20047;-73
2022/05/06 06:23:16;;;;;;;18.80;10.80;;;;;;;23.86;71.23;99644.38;5130007;28;20051;-73
2022/05/06 06:25:43;;;;;;;18.08;11.73;;;;;;;23.45;73.64;99650.69;5132230;27;20444;-73
2022/05/06 06:28:10;;;;;;;23.25;11.68;;;;;;;22.94;75.17;99644.81;5133652;28;20521;-71
2022/05/06 06:30:36;;;;;;;15.93;5.53;;;;;;;22.73;70.35;99648.91;5133788;28;20047;-71
2022/05/06 06:33:03;;;;;;;10.77;5.35;;;;;;;22.31;70.45;99646.66;5133325;28;20418;-72
2022/05/06 06:35:29;;;;;;;16.95;6.72;;;;;;;22.14;71.38;99641.44;5133681;28;20494;-72
2022/05/06 06:37:56;;;;;;;19.58;11.32;;;;;;;22.41;75.29;99633.66;5133501;28;20070;-75
2022/05/06 06:40:22;;;;;;;18.73;11.57;;;;;;;23.01;73.36;99627.88;5133361;28;20047;-71
2022/05/06 06:42:48;;;;;;;18.88;10.90;;;;;;;23.68;70.19;99630.09;5133119;28;20053;-71
2022/05/06 06:45:15;;;;;;;13.20;5.63;;;;;;;23.99;66.19;99638.78;5133639;28;20051;-73
2022/05/06 06:47:41;;;;;;;12.13;4.95;;;;;;;24.13;66.48;99632.78;5133139;28;20047;-72
2022/05/06 06:50:08;;;;;;;9.63;4.72;;;;;;;24.24;66.14;99640.84;5133362;28;20055;-72
2022/05/06 06:52:35;;;;;;;14.52;4.60;;;;;;;24.23;63.87;99644.91;5133249;28;20050;-73
2022/05/06 06:55:01;;;;;;;19.02;4.68;;;;;;;24.48;64.59;99646.16;5133222;28;20502;-73
2022/05/06 06:57:30;;;;;;;11.15;5.05;;;;;;;24.69;65.57;99642.66;5132834;28;20054;-72
2022/05/06 06:59:56;;;;;;;12.05;4.40;;;;;;;24.56;62.98;99642.69;5133225;28;20043;-74
2022/05/06 07:02:23;;;;;;;13.25;4.80;;;;;;;24.88;63.76;99643.66;5133220;28;20065;-75
2022/05/06 07:04:51;;;;;;;8.32;4.68;;;;;;;24.60;62.91;99632.16;5133223;28;20066;-73
2022/05/06 07:12:45;;;;;;;10.48;4.90;;;;;;;25.20;64.19;99639.81;5133099;28;20054;-70
2022/05/06 07:15:12;;;;;;;12.45;3.85;;;;;;;24.99;61.70;99638.50;5132757;28;20058;-74
2022/05/06 07:17:39;;;;;;;4.93;3.60;;;;;;;25.01;61.71;99636.00;5132793;28;20050;-79
2022/05/06 07:20:06;;;;;;;12.65;5.03;;;;;;;25.00;62.49;99640.06;5132658;28;20524;-75
2022/05/06 07:22:32;;;;;;;7.28;4.78;;;;;;;25.07;64.08;99637.00;5133185;28;20047;-72
2022/05/06 07:24:58;;;;;;;9.70;4.45;;;;;;;24.53;63.78;99631.59;5132600;28;20051;-70
2022/05/06 07:27:26;;;;;;;12.73;4.15;;;;;;;24.34;62.58;99633.34;5133207;28;20104;-70
2022/05/06 07:29:52;;;;;;;9.82;4.57;;;;;;;24.39;64.24;99632.78;5132562;28;20051;-70
2022/05/06 07:32:18;;;;;;;14.20;5.32;;;;;;;24.56;62.90;99631.50;5133018;28;20058;-71
2022/05/06 07:34:45;;;;;;;12.40;5.15;;;;;;;25.11;64.51;99640.50;5132678;28;20520;-68
2022/05/06 07:37:11;;;;;;;7.20;4.70;;;;;;;25.53;63.29;99639.47;5132227;27;20460;-70
2022/05/06 07:39:37;;;;;;;14.27;4.60;;;;;;;25.76;64.00;99641.84;5132549;28;20051;-70
2022/05/06 07:42:04;;;;;;;11.68;5.68;;;;;;;25.42;64.38;99639.84;5132560;28;20051;-70
2022/05/06 07:44:30;;;;;;;11.60;4.75;;;;;;;25.30;65.12;99644.28;5132393;28;20486;-69
2022/05/06 07:46:56;;;;;;;15.65;5.18;;;;;;;25.38;66.32;99636.38;5132299;28;20047;-69
2022/05/06 07:49:23;;;;;;;10.52;5.45;;;;;;;25.50;65.52;99640.38;5132381;28;20448;-70
2022/05/06 07:51:50;;;;;;;11.32;5.35;;;;;;;25.35;62.92;99643.69;5132221;28;20046;-71
2022/05/06 07:54:17;;;;;;;17.27;5.47;;;;;;;24.88;65.20;99643.66;5132585;28;20081;-73
2022/05/06 07:56:43;;;;;;;12.05;5.28;;;;;;;24.68;65.45;99635.50;5132255;28;20395;-72
2022/05/06 07:59:09;;;;;;;13.57;5.55;;;;;;;24.48;66.16;99637.75;5132333;28;20101;-71
2022/05/06 08:04:36;;;;;;;11.30;5.70;;;;;;;25.46;66.24;99634.91;5132158;28;20105;-71
2022/05/06 08:07:05;;;;;;;16.17;5.70;;;;;;;25.47;65.38;99639.28;5132223;28;20403;-67
2022/05/06 08:09:31;;;;;;;13.27;5.00;;;;;;;25.58;64.19;99645.28;5131897;28;20047;-69
2022/05/06 08:11:58;;;;;;;12.73;4.40;;;;;;;25.68;61.44;99646.13;5132210;28;20047;-74
2022/05/06 08:14:24;;;;;;;9.63;5.55;;;;;;;25.77;62.92;99649.00;5131704;28;20051;-72
2022/05/06 08:16:51;;;;;;;16.13;6.85;;;;;;;25.43;67.17;99637.84;5132293;28;20053;-70
2022/05/06 08:19:18;;;;;;;26.95;6.35;;;;;;;25.74;64.09;99643.53;5131601;28;20047;-64
2022/05/06 08:21:44;;;;;;;20.70;9.63;;;;;;;25.85;66.27;99640.34;5131930;28;20473;-60
2022/05/06 08:24:11;;;;;;;16.17;6.00;;;;;;;25.95;61.11;99647.59;5131694;28;20047;-61
2022/05/06 08:26:38;;;;;;;15.55;5.53;;;;;;;25.70;61.19;99638.03;5131537;28;20047;-61
2022/05/06 08:29:04;;;;;;;14.73;4.97;;;;;;;25.53;60.51;99643.06;5131559;28;20117;-62
2022/05/06 08:31:32;;;;;;;11.07;4.53;;;;;;;25.75;61.21;99648.69;5131396;28;20058;-62
2022/05/06 08:33:58;;;;;;;8.27;3.78;;;;;;;25.76;61.82;99641.84;5131711;28;20051;-62
2022/05/06 08:36:24;;;;;;;12.27;5.50;;;;;;;25.56;62.93;99635.75;5131301;28;20051;-62
2022/05/06 08:38:51;;;;;;;9.05;4.65;;;;;;;25.71;61.43;99634.00;5131300;28;20511;-63
2022/05/06 08:41:19;;;;;;;7.53;4.30;;;;;;;25.63;58.91;99645.94;5131336;28;20104;-62
2022/05/06 08:43:45;;;;;;;10.57;4.93;;;;;;;25.48;60.91;99634.44;5131691;28;20054;-62
2022/05/06 08:51:41;;;;;;;5.70;3.55;;;;;;;25.30;59.89;99641.47;5115897;28;20051;-62
2022/05/06 08:54:07;;;;;;;7.40;4.93;;;;;;;25.55;63.28;99634.97;5130952;28;20051;-60
2022/05/06 08:56:34;;;;;;;15.95;5.55;;;;;;;25.57;62.53;99635.28;5131072;28;20066;-61
2022/05/06 08:59:00;;;;;;;7.03;4.05;;;;;;;25.27;61.49;99630.38;5130954;28;20043;-61
2022/05/06 09:01:27;;;;;;;9.00;4.30;;;;;;;25.54;63.62;99627.00;5131275;28;20054;-62
2022/05/06 09:03:55;;;;;;;7.32;4.63;;;;;;;25.69;62.54;99628.06;5130989;28;20051;-61
2022/05/06 09:06:22;;;;;;;17.85;4.53;;;;;;;25.29;61.85;99631.50;5130891;28;20047;-61
2022/05/06 09:08:50;;;;;;;7.95;3.42;;;;;;;25.29;62.54;99634.28;5130821;28;20506;-61
2022/05/06 09:11:17;;;;;;;6.97;3.67;;;;;;;25.28;62.83;99638.31;5130911;28;20047;-61
2022/05/06 09:13:52;;;;;;;9.68;4.65;;;;;;;25.02;60.35;99628.38;5131178;28;20051;-61
2022/05/06 09:19:14;;;;;;;11.15;3.95;;;;;;;25.57;62.86;99620.47;5131224;28;20129;-62
2022/05/06 09:21:41;;;;;;;8.90;4.75;;;;;;;25.65;62.96;99618.19;5130685;28;20100;-61
2022/05/06 09:24:17;;;;;;;8.18;3.97;;;;;;;25.61;62.34;99615.50;5131068;28;20043;-61
2022/05/06 09:26:56;;;;;;;16.88;4.50;;;;;;;25.51;63.60;99616.69;5130766;28;20059;-61
2022/05/06 09:29:31;;;;;;;8.05;3.60;;;;;;;25.40;61.92;99613.50;5130721;28;20047;-61
2022/05/06 09:32:12;;;;;;;6.03;3.17;;;;;;;25.35;62.19;99598.78;5130370;28;20413;-61
2022/05/06 09:34:39;;;;;;;8.73;3.67;;;;;;;25.19;63.13;99598.97;5130709;28;20399;-61
2022/05/06 09:37:05;;;;;;;9.45;3.53;;;;;;;24.54;62.21;99600.31;5130725;28;20051;-61
2022/05/06 09:39:32;;;;;;;9.32;3.53;;;;;;;24.76;61.24;99600.41;5130542;28;20134;-61
2022/05/06 09:42:02;;;;;;;5.18;3.28;;;;;;;24.39;61.76;99604.75;5130676;28;20047;-61
2022/05/06 09:44:30;;;;;;;7.75;4.05;;;;;;;24.50;62.58;99599.66;5130410;28;20046;-61
2022/05/06 09:47:08;;;;;;;9.88;3.53;;;;;;;24.37;62.57;99593.22;5130834;28;20074;-61
2022/05/06 09:49:39;;;;;;;7.68;3.42;;;;;;;24.65;62.13;99597.16;5130269;28;20114;-61
2022/05/06 09:52:10;;;;;;;8.30;3.08;;;;;;;25.00;61.19;99597.22;5130267;28;20366;-61
2022/05/06 09:54:36;;;;;;;5.43;2.95;;;;;;;25.08;60.31;99596.50;5130294;28;20055;-62
2022/05/06 09:57:03;;;;;;;10.55;4.65;;;;;;;25.35;64.34;99589.56;5130199;28;20047;-61
2022/05/06 09:59:31;;;;;;;10.98;3.60;;;;;;;25.66;61.64;99598.09;5130448;27;20050;-62
2022/05/06 10:01:57;;;;;;;9.10;4.15;;;;;;;25.61;62.35;99604.28;5133922;28;20051;-63
2022/05/06 10:04:23;;;;;;;8.10;3.60;;;;;;;25.36;60.44;99599.59;5133886;28;20043;-62
2022/05/06 10:06:49;;;;;;;7.05;3.03;;;;;;;24.89;60.95;99597.56;5133948;28;20047;-63
2022/05/06 10:09:21;;;;;;;8.48;3.40;;;;;;;24.35;61.11;99582.47;5134350;28;20043;-63
2022/05/06 10:11:51;;;;;;;12.48;4.05;;;;;;;24.25;64.01;99582.81;5133696;28;20050;-63
2022/05/06 10:14:18;;;;;;;8.77;3.05;;;;;;;23.66;59.73;99596.16;5134066;28;20054;-62
2022/05/06 10:16:46;;;;;;;7.72;3.08;;;;;;;23.15;60.79;99598.75;5133715;28;20066;-62
2022/05/06 10:19:25;;;;;;;4.85;2.85;;;;;;;22.92;60.98;99603.28;5133831;28;20414;-62
2022/05/06 10:21:51;;;;;;;6.93;2.92;;;;;;;22.55;63.24;99596.22;5133841;28;20043;-62
2022/05/06 10:24:18;;;;;;;5.32;3.30;;;;;;;22.03;65.10;99595.00;5133337;28;20062;-62
2022/05/06 10:26:45;;;;;;;5.30;4.10;;;;;;;21.86;65.74;99585.00;5133757;28;20529;-60
2022/05/06 10:32:56;;;;;;;5.90;3.17;;;;;;;22.78;64.66;99575.69;5133488;28;20059;-62
2022/05/06 10:35:39;;;;;;;18.50;6.95;;;;;;;22.82;66.78;99581.19;5133398;28;20472;-62
2022/05/06 10:38:25;;;;;;;12.30;4.78;;;;;;;22.75;67.30;99566.16;5133225;28;20425;-61
2022/05/06 10:40:54;;;;;;;15.50;3.83;;;;;;;22.69;65.44;99573.53;5133503;28;20494;-61
2022/05/06 10:43:54;;;;;;;8.25;3.25;;;;;;;22.03;64.63;99572.66;5132694;28;20051;-61
2022/05/06 10:46:37;;;;;;;7.05;3.13;;;;;;;21.80;67.42;99564.41;5133160;28;20429;-61
2022/05/06 10:49:50;;;;;;;5.75;2.38;;;;;;;22.13;67.49;99561.69;5133363;28;20049;-61
2022/05/06 10:52:53;;;;;;;6.78;3.80;;;;;;;22.43;69.17;99557.81;5133108;28;20082;-61
2022/05/06 10:55:22;;;;;;;7.18;3.30;;;;;;;22.61;66.59;99568.56;5132735;28;20047;-61
2022/05/06 10:58:00;;;;;;;6.70;3.40;;;;;;;22.47;67.92;99566.91;5133070;28;20047;-61
2022/05/06 11:00:29;;;;;;;5.72;3.42;;;;;;;22.44;67.30;99559.38;5132563;28;20051;-61
2022/05/06 11:02:58;;;;;;;9.00;4.55;;;;;;;22.57;71.52;99551.09;5132715;28;20520;-61
2022/05/06 11:05:25;;;;;;;8.32;3.72;;;;;;;22.55;66.58;99546.72;5132769;28;20510;-61
2022/05/06 11:07:55;;;;;;;10.60;3.78;;;;;;;22.27;66.85;99545.41;5133087;28;20051;-61
2022/05/06 11:10:24;;;;;;;5.47;2.97;;;;;;;22.11;67.56;99544.56;5132798;28;20043;-61
2022/05/06 11:12:51;;;;;;;25.67;4.35;;;;;;;22.03;68.61;99547.53;5131633;27;20047;-61
2022/05/06 11:15:19;;;;;;;7.35;3.33;;;;;;;21.93;69.21;99542.97;5132844;28;20070;-61
2022/05/06 11:17:46;;;;;;;8.05;3.60;;;;;;;21.66;68.87;99554.34;5132736;28;20055;-61
2022/05/06 11:20:17;;;;;;;4.68;2.75;;;;;;;21.36;68.85;99553.34;5132776;28;20043;-61
2022/05/06 11:22:53;;;;;;;10.25;2.40;;;;;;;21.10;69.46;99549.44;5132420;28;20526;-61
2022/05/06 11:25:21;;;;;;;5.15;2.85;;;;;;;21.20;71.66;99528.13;5132802;28;20054;-61
2022/05/06 11:27:49;;;;;;;12.57;3.50;;;;;;;21.19;69.22;99537.69;5132565;28;20157;-61
2022/05/06 11:30:16;;;;;;;9.23;3.72;;;;;;;21.25;72.83;99541.56;5132575;28;20047;-61
2022/05/06 11:32:48;;;;;;;6.20;2.88;;;;;;;21.11;69.63;99536.28;5132439;28;20047;-61
2022/05/06 11:35:18;;;;;;;5.05;3.20;;;;;;;21.00;70.07;99542.06;5132778;28;20086;-61
2022/05/06 11:37:44;;;;;;;7.97;4.05;;;;;;;21.03;74.52;99529.28;5132435;28;20055;-61
2022/05/06 11:40:33;;;;;;;7.03;3.10;;;;;;;20.98;70.94;99530.53;5132674;28;20109;-61
2022/05/06 11:43:01;;;;;;;6.25;3.13;;;;;;;20.83;70.54;99521.66;5132836;28;20062;-62
2022/05/06 11:48:13;;;;;;;8.38;3.42;;;;;;;20.84;71.83;99525.22;5132602;28;20050;-61
2022/05/06 11:50:41;;;;;;;6.78;3.10;;;;;;;20.79;71.31;99520.13;5132419;28;20078;-62
2022/05/06 11:53:10;;;;;;;6.22;3.58;;;;;;;20.86;71.71;99520.03;5132012;28;20153;-61
2022/05/06 11:55:37;;;;;;;9.20;3.30;;;;;;;20.74;71.83;99515.06;5131732;28;20047;-61
2022/05/06 11:58:06;;;;;;;7.60;3.22;;;;;;;20.52;71.59;99526.56;5131765;28;20077;-62
2022/05/06 12:00:32;;;;;;;7.43;3.10;;;;;;;20.32;72.51;99520.91;5132332;28;20051;-61
2022/05/06 12:03:03;;;;;;;8.93;3.63;;;;;;;20.36;72.58;99520.84;5131861;28;20051;-61
2022/05/06 12:05:29;;;;;;;10.95;3.92;;;;;;;20.51;75.45;99510.28;5132168;28;20051;-61
2022/05/06 12:07:55;;;;;;;5.15;3.13;;;;;;;20.55;72.61;99522.94;5131584;28;20047;-61
2022/05/06 12:10:26;;;;;;;7.85;2.67;;;;;;;20.62;72.39;99525.59;5132003;28;20058;-61
2022/05/06 12:12:53;;;;;;;4.10;2.67;;;;;;;20.52;71.96;99512.66;5131652;28;20506;-61
2022/05/06 12:15:20;;;;;;;5.35;3.10;;;;;;;20.34;71.42;99520.50;5131955;28;20051;-61